Bonaire, GA (31005)

6:14 PM EDT on April 24, 2017 (GMT -0400)
King's Crossing | | Change Station

Elev 374 ft 32.56 °N, 83.61 °W | Updated 30 seconds ago

Overcast
Overcast
61.3 °F
Feels Like 61.3 °F
N
0.0
Wind Variable Wind from West
Gusts 0.0 mph

Today
High -- | Low -- °F
--% Chance of Precip.
Yesterday
High -- | Low -- °F
Precip. -- in
Pressure 29.74 in
Visibility 10.0 miles
Clouds Mostly Cloudy 1000 ft
Mostly Cloudy 2200 ft
Mostly Cloudy 2700 ft
Overcast 3600 ft
Dew Point 55 °F
Humidity 80%
Rainfall 0.02 in
Snow Depth Not available.
6:54 AM 8:10 PM
Waning Crescent, 4% visible
SPECI KWRB 242204Z AUTO 31008KT 10SM BKN010 BKN022 BKN027 OVC036 16/14 A2973 RMK AO2 CIG 010V024 BKN010 V SCT SLP069 $
Pressure 29.74 in
Visibility 10.0 miles
Clouds Mostly Cloudy 1000 ft
Mostly Cloudy 2200 ft
Mostly Cloudy 2700 ft
Overcast 3600 ft
Dew Point 55 °F
Humidity 80%
Rainfall 0.02 in
Snow Depth Not available.
6:54 AM 8:10 PM
Waning Crescent, 4% visible
SPECI KWRB 242204Z AUTO 31008KT 10SM BKN010 BKN022 BKN027 OVC036 16/14 A2973 RMK AO2 CIG 010V024 BKN010 V SCT SLP069 $

Get Severe Weather Alerts

Thanks for signing up!

Be on the lookout for a verification email in your inbox.

You'll start receiving the daily forecast at 8 AM.

×

10-Day Weather Forecast

Almanac

Astronomy

Apr. 24, 2017 Rise Set
Actual Time
Civil Twilight
Nautical Twilight
Astronomical Twilight
Moon
Length of Visible Light
Length of Day
Tomorrow will be .
, % of the Moon is Illuminated

Today's Extremes

State Highs State Lows

Community

WunderPhotos

WunderBlog® & News

Nearby

Air Quality

  Air Quality AQ Index Pollutant
Not available.

Snow Depth

Station Depth Elevation

Earthquake Activity

City Distance Mag. Time & Date
Minimum magnitude displayed is 2.5.

Coastal Water Temperatures

Place Temperature

Stations

Nearby Weather Stations

Station Location Temp. Windchill Dew Point Humidity Wind Precip. Elev Updated Type
                   

Watches & Warnings

There are currently no watches in effect.